Terminal Aerodrome Forecast
Issued by NWS

Current Version | Previous Version | Text Only | Print | Product List | Glossary Off
Versions: 1 2 3 4 5 6 7 8 9 10 11 12 13 14 15 16 17 18 19 20 21

000
FTUS41 KILN 171829 AAA
TAFLUK
TAF AMD
KLUK 171829Z 1718/1818 16005KT 1SM -SN BR OVC009
     FM172100 18004KT 5SM BR VCSH OVC009
     FM180000 22005KT P6SM VCSH OVC009
     FM180500 28007KT P6SM BKN015
     FM180900 29005KT P6SM SCT020
     FM181500 14005KT P6SM SCT250=

USA.gov is the U.S. government's official web portal to all federal, state and local government web resources and services.